createdAt,value
2017-12-04T00:10:49.371Z,3.6
2017-12-04T00:27:37.047Z,3.6
2017-12-04T00:44:24.707Z,3.6
2017-12-04T01:01:12.603Z,3.6
2017-12-04T01:17:59.947Z,3.6
2017-12-04T01:34:47.576Z,3.6
2017-12-04T01:51:35.105Z,3.5
2017-12-04T02:08:22.620Z,3.5
2017-12-04T02:25:10.097Z,3.5
2017-12-04T02:41:57.583Z,3.5
2017-12-04T02:58:45.102Z,3.5
2017-12-04T03:15:32.671Z,3.5
2017-12-04T03:32:20.160Z,3.5
2017-12-04T03:49:07.688Z,3.5
2017-12-04T04:05:55.033Z,3.5
2017-12-04T04:22:42.358Z,3.5
2017-12-04T04:39:29.694Z,3.5
2017-12-04T04:56:17.055Z,3.5
2017-12-04T05:13:04.892Z,3.5
2017-12-04T05:29:51.824Z,3.5
2017-12-04T05:46:39.225Z,3.5
2017-12-04T06:03:26.660Z,3.5
2017-12-04T06:20:14.088Z,3.5
2017-12-04T06:37:01.526Z,3.5
2017-12-04T06:53:49.095Z,3.5
2017-12-04T07:10:36.739Z,3.5
2017-12-04T07:27:24.237Z,3.5
2017-12-04T07:44:11.674Z,3.5
2017-12-04T08:00:59.104Z,3.5
2017-12-04T08:17:46.547Z,3.6
2017-12-04T08:34:34.015Z,3.6
2017-12-04T08:51:21.484Z,3.6
2017-12-04T09:08:09.007Z,3.6
2017-12-04T09:24:56.489Z,3.5
2017-12-04T09:41:43.990Z,3.5
2017-12-04T09:58:31.490Z,3.7
2017-12-04T10:15:18.823Z,3.7
2017-12-04T10:32:06.779Z,3.8
2017-12-04T10:48:54.746Z,3.7
2017-12-04T11:05:42.181Z,3.8
2017-12-04T11:22:30.235Z,3.8
2017-12-04T11:39:18.363Z,3.8
2017-12-04T11:56:06.451Z,3.9
2017-12-04T12:12:54.562Z,3.9
2017-12-04T12:29:42.710Z,4.0
2017-12-04T12:46:31.228Z,4.1
2017-12-04T13:03:19.734Z,4.2
2017-12-04T13:20:07.202Z,4.2
2017-12-04T13:36:55.273Z,4.2
2017-12-04T13:53:43.225Z,4.2
2017-12-04T14:10:31.712Z,4.3
2017-12-04T14:27:20.266Z,4.3
2017-12-04T14:44:08.472Z,4.2
2017-12-04T15:00:56.477Z,4.2
2017-12-04T15:17:44.598Z,4.2
2017-12-04T15:34:32.568Z,4.2
2017-12-04T15:51:20.570Z,4.2
2017-12-04T16:08:08.702Z,4.2
2017-12-04T16:24:56.784Z,4.2
2017-12-04T16:41:44.986Z,4.2
2017-12-04T16:58:33.325Z,4.1
2017-12-04T17:15:21.452Z,4.1
2017-12-04T17:32:09.569Z,4.1
2017-12-04T17:48:57.790Z,4.1
2017-12-04T18:05:45.915Z,4.1
2017-12-04T18:22:34.096Z,4.1
2017-12-04T18:39:22.094Z,4.1
2017-12-04T18:56:10.146Z,4.1
2017-12-04T19:12:58.264Z,4.1
2017-12-04T19:29:46.387Z,4.1
2017-12-04T19:46:34.635Z,4.0
2017-12-04T20:03:22.849Z,4.0
2017-12-04T20:20:10.772Z,4.0
2017-12-04T20:36:58.624Z,4.0
2017-12-04T20:53:46.663Z,4.0
2017-12-04T21:10:34.648Z,4.0
2017-12-04T21:27:22.819Z,4.0
2017-12-04T21:44:10.845Z,4.0
2017-12-04T22:00:58.854Z,3.9
2017-12-04T22:17:46.932Z,3.9
2017-12-04T22:34:35.029Z,3.9
2017-12-04T22:51:23.200Z,3.9
2017-12-04T23:08:11.509Z,3.9
2017-12-04T23:24:59.838Z,3.9
2017-12-04T23:41:48.097Z,3.9
2017-12-04T23:58:36.043Z,3.9
